Terminal Aerodrome Forecast
Issued by NWS

Home | Current Version | Previous Version | Text Only | Print | Product List | Glossary On
Versions: 1 2 3 4 5 6 7 8 9 10 11 12 13 14 15 16 17 18 19 20 21 22 23 24 25 26 27 28 29 30
000
FTUS43 KLOT 301400 AAA
TAFGYY
TAF AMD
KGYY 301407Z 3014/3112 20007KT P6SM SCT120 BKN250
     FM301900 24005KT P6SM SCT040 BKN100
     FM310000 26004KT P6SM SCT035 OVC060
     FM310600 30010KT P6SM VCSH BKN012 OVC025
     FM311100 33014G24KT P6SM SCT012 BKN035=

USA.gov is the U.S. government's official web portal to all federal, state and local government web resources and services.